Time;durP1;ratioP1;P1;durP2;ratioP2;P2;SDS_P1;SDS_P2;PMS_P1;PMS_P2;Temp;Humidity;BMP_temperature;BMP_pressure;BME280_temperature;BME280_humidity;BME280_pressure;Samples;Min_cycle;Max_cycle;Signal;HPM_P1;HPM_P2
2022/12/30 00:04:36;;;;;;;2.50;2.20;;;;;12.20;98788.00;;;;16690629;28;20278;-47
2022/12/30 00:37:45;;;;;;;4.00;2.87;;;;;11.40;98818.00;;;;16718565;28;20264;-48
2022/12/30 00:45:49;;;;;;;4.30;3.37;;;;;11.90;98822.00;;;;16718408;28;20210;-46
2022/12/30 01:02:13;;;;;;;2.00;1.60;;;;;11.40;98821.00;;;;16686546;28;20223;-47
2022/12/30 01:10:15;;;;;;;0.83;0.83;;;;;11.40;98839.00;;;;16693957;28;20230;-47
2022/12/30 01:18:19;;;;;;;0.73;0.73;;;;;11.20;98844.00;;;;16679614;28;20300;-47
2022/12/30 01:26:21;;;;;;;1.23;0.63;;;;;11.10;98858.00;;;;16686993;28;20259;-47
2022/12/30 01:34:26;;;;;;;1.07;0.70;;;;;11.10;98855.00;;;;16686247;28;20224;-47
2022/12/30 01:42:30;;;;;;;0.80;0.80;;;;;11.60;98866.00;;;;16677067;28;20241;-47
2022/12/30 01:50:39;;;;;;;0.80;0.63;;;;;10.90;98881.00;;;;16677214;28;20223;-47
2022/12/30 01:58:45;;;;;;;5.60;2.00;;;;;10.90;98884.00;;;;16678747;28;20230;-47
2022/12/30 02:06:52;;;;;;;7.57;5.53;;;;;11.20;98879.00;;;;16677479;28;21002;-46
2022/12/30 02:14:56;;;;;;;2.33;1.70;;;;;11.10;98897.00;;;;16680986;28;20217;-47
2022/12/30 02:23:36;;;;;;;1.10;0.80;;;;;11.20;98879.00;;;;16679219;28;20220;-47
2022/12/30 02:31:47;;;;;;;1.33;0.80;;;;;10.90;98873.00;;;;16599523;28;20222;-47
2022/12/30 02:39:54;;;;;;;1.40;0.70;;;;;10.90;98888.00;;;;16673777;28;20288;-46
2022/12/30 02:48:01;;;;;;;1.50;0.77;;;;;10.70;98903.00;;;;16678082;28;20300;-47
2022/12/30 02:56:04;;;;;;;1.27;1.07;;;;;10.00;98912.00;;;;16679014;28;20207;-46
2022/12/30 03:04:14;;;;;;;1.47;0.90;;;;;10.00;98920.00;;;;16678027;28;20301;-47
2022/12/30 03:12:22;;;;;;;1.20;1.10;;;;;9.00;98925.00;;;;16678555;28;20716;-48
2022/12/30 03:20:26;;;;;;;1.20;1.10;;;;;8.30;98953.00;;;;16690424;28;20216;-47
2022/12/30 03:28:29;;;;;;;1.57;0.93;;;;;8.20;98942.00;;;;16687236;28;20572;-47
2022/12/30 03:36:37;;;;;;;2.63;1.07;;;;;7.40;98966.00;;;;16700450;28;20209;-47
2022/12/30 03:44:41;;;;;;;1.93;1.80;;;;;7.40;98967.00;;;;16693905;28;20277;-48
2022/12/30 03:52:45;;;;;;;3.33;1.60;;;;;7.80;98947.00;;;;16688547;28;20233;-48
2022/12/30 04:00:47;;;;;;;3.53;1.33;;;;;7.90;98953.00;;;;16701552;28;20228;-48
2022/12/30 04:08:51;;;;;;;3.40;1.10;;;;;7.50;98955.00;;;;16683743;28;20229;-48
2022/12/30 04:16:53;;;;;;;2.10;1.40;;;;;7.50;98932.00;;;;16694197;28;20221;-48
2022/12/30 04:24:57;;;;;;;1.30;1.20;;;;;6.80;98939.00;;;;16692250;28;20551;-48
2022/12/30 04:33:02;;;;;;;2.10;1.10;;;;;6.80;98943.00;;;;16690292;28;20220;-47
2022/12/30 04:41:05;;;;;;;1.37;1.27;;;;;6.70;98938.00;;;;16685145;28;20222;-48
2022/12/30 04:49:08;;;;;;;1.13;1.13;;;;;6.80;98919.00;;;;16692963;28;20679;-47
2022/12/30 04:57:12;;;;;;;1.27;1.17;;;;;7.10;98943.00;;;;16703901;28;20409;-47
2022/12/30 05:05:14;;;;;;;4.27;1.00;;;;;7.30;98943.00;;;;16689381;28;20201;-47
2022/12/30 05:13:18;;;;;;;1.57;1.47;;;;;6.50;98945.00;;;;16687552;28;20307;-48
2022/12/30 05:21:20;;;;;;;1.90;1.80;;;;;7.30;98943.00;;;;16687737;28;20218;-48
2022/12/30 05:29:24;;;;;;;2.03;1.83;;;;;8.20;98943.00;;;;16683937;28;20250;-48
2022/12/30 05:37:26;;;;;;;2.17;2.00;;;;;8.30;98923.00;;;;16693966;28;20225;-48
2022/12/30 05:45:30;;;;;;;1.90;1.80;;;;;8.30;98926.00;;;;16690513;28;20218;-47
2022/12/30 05:53:33;;;;;;;1.50;1.40;;;;;6.80;98945.00;;;;16686508;28;20221;-48
2022/12/30 06:01:36;;;;;;;2.03;1.83;;;;;6.30;98951.00;;;;16696506;28;20235;-47
2022/12/30 06:09:39;;;;;;;1.53;1.43;;;;;6.00;98938.00;;;;16689888;28;20235;-48
2022/12/30 06:17:43;;;;;;;2.37;1.13;;;;;5.70;98953.00;;;;16687924;28;20301;-48
2022/12/30 06:25:45;;;;;;;3.80;1.47;;;;;5.50;98960.00;;;;16693172;28;20203;-48
2022/12/30 06:33:49;;;;;;;1.83;1.50;;;;;5.70;98950.00;;;;16692356;28;20241;-48
2022/12/30 06:41:51;;;;;;;3.43;2.87;;;;;5.90;98954.00;;;;16711996;28;20222;-48
2022/12/30 06:49:55;;;;;;;6.00;5.47;;;;;5.60;98958.00;;;;16701521;28;20237;-47
2022/12/30 06:57:58;;;;;;;3.57;3.37;;;;;5.60;98952.00;;;;16702825;28;20231;-48
2022/12/30 07:06:01;;;;;;;3.73;2.63;;;;;5.60;98952.00;;;;16688948;28;20218;-47
2022/12/30 07:14:04;;;;;;;3.00;2.70;;;;;5.30;98962.00;;;;16689632;28;20250;-47
2022/12/30 07:22:07;;;;;;;3.13;2.60;;;;;5.40;98969.00;;;;16697795;28;20222;-48
2022/12/30 07:30:11;;;;;;;3.03;2.20;;;;;5.50;98967.00;;;;16693627;28;20230;-49
2022/12/30 07:38:15;;;;;;;4.57;4.00;;;;;6.20;98958.00;;;;16687439;28;20227;-48
2022/12/30 07:46:17;;;;;;;3.80;3.50;;;;;5.90;98965.00;;;;16698316;28;20215;-48
2022/12/30 07:54:21;;;;;;;3.60;2.63;;;;;5.60;98962.00;;;;16699497;28;20323;-47
2022/12/30 08:02:24;;;;;;;2.90;2.60;;;;;6.00;98944.00;;;;16698505;28;20319;-49
2022/12/30 08:10:28;;;;;;;4.60;4.20;;;;;6.90;98939.00;;;;16715585;28;20257;-50
2022/12/30 08:18:30;;;;;;;5.40;4.93;;;;;7.70;98925.00;;;;16710724;28;20306;-47
2022/12/30 08:26:34;;;;;;;4.40;4.10;;;;;7.30;98937.00;;;;16703555;28;20828;-49
2022/12/30 08:34:36;;;;;;;5.83;4.10;;;;;6.80;98922.00;;;;16704995;28;20352;-49
2022/12/30 08:42:40;;;;;;;7.27;6.57;;;;;7.40;98909.00;;;;16694396;28;20282;-49
2022/12/30 08:50:50;;;;;;;5.70;5.20;;;;;7.70;98893.00;;;;16706815;28;20248;-48
2022/12/30 08:58:54;;;;;;;5.90;5.40;;;;;8.50;98880.00;;;;16701052;28;20232;-47
2022/12/30 09:16:22;;;;;;;3.80;3.50;;;;;9.30;98856.00;;;;16706166;28;20621;-49
2022/12/30 09:24:24;;;;;;;5.87;3.30;;;;;9.60;98854.00;;;;16691267;23;20238;-48
2022/12/30 09:32:28;;;;;;;5.20;3.93;;;;;9.70;98835.00;;;;16648797;28;20234;-47
2022/12/30 09:40:45;;;;;;;2.97;2.77;;;;;9.80;98835.00;;;;16636877;28;20214;-48
2022/12/30 09:48:54;;;;;;;3.00;2.80;;;;;10.30;98803.00;;;;16648141;28;20621;-47
2022/12/30 09:57:30;;;;;;;4.27;3.70;;;;;10.50;98794.00;;;;16648012;28;20568;-48
2022/12/30 10:05:38;;;;;;;3.90;3.53;;;;;10.60;98764.00;;;;16647526;28;20280;-47
2022/12/30 10:13:45;;;;;;;4.40;3.77;;;;;11.20;98738.00;;;;16638171;28;20308;-48
2022/12/30 10:21:57;;;;;;;3.27;2.97;;;;;11.30;98726.00;;;;16646866;28;20228;-48
2022/12/30 10:29:59;;;;;;;5.50;5.00;;;;;11.80;98703.00;;;;16641399;28;20668;-48
2022/12/30 10:38:09;;;;;;;3.87;3.57;;;;;12.20;98695.00;;;;16637134;28;20262;-48
2022/12/30 10:46:26;;;;;;;2.53;2.33;;;;;12.90;98685.00;;;;16645617;28;20226;-48
2022/12/30 10:54:30;;;;;;;2.10;2.00;;;;;13.30;98670.00;;;;16638123;28;20226;-48
2022/12/30 11:02:37;;;;;;;3.47;2.20;;;;;13.70;98656.00;;;;16643937;28;20684;-49
2022/12/30 11:10:41;;;;;;;5.60;4.90;;;;;14.00;98645.00;;;;16641457;28;20283;-48
2022/12/30 11:18:45;;;;;;;3.00;2.80;;;;;14.10;98639.00;;;;16644370;28;20202;-48
2022/12/30 11:26:50;;;;;;;1.50;1.40;;;;;14.20;98634.00;;;;16630668;28;20214;-49
2022/12/30 11:34:52;;;;;;;2.90;1.60;;;;;14.10;98630.00;;;;16644283;28;20703;-48
2022/12/30 11:43:16;;;;;;;2.07;1.50;;;;;14.70;98615.00;;;;16637312;28;20277;-48
2022/12/30 11:51:20;;;;;;;1.10;1.00;;;;;14.70;98596.00;;;;16650433;28;20646;-48
2022/12/30 11:59:27;;;;;;;1.20;1.10;;;;;14.30;98558.00;;;;16652869;28;20223;-48
2022/12/30 12:07:34;;;;;;;1.30;1.00;;;;;14.10;98603.00;;;;16654949;28;20205;-48
2022/12/30 12:15:43;;;;;;;3.80;1.00;;;;;13.90;98592.00;;;;16652572;28;20221;-47
2022/12/30 12:23:50;;;;;;;0.83;0.83;;;;;13.70;98577.00;;;;16654239;28;20233;-48
2022/12/30 12:32:24;;;;;;;1.47;1.00;;;;;13.50;98566.00;;;;16646711;28;20729;-48
2022/12/30 12:40:50;;;;;;;1.57;1.23;;;;;13.40;98527.00;;;;16643315;28;20812;-48
2022/12/30 12:49:14;;;;;;;1.40;1.30;;;;;13.40;98537.00;;;;16631587;28;20609;-48
2022/12/30 12:57:25;;;;;;;3.27;1.30;;;;;13.30;98540.00;;;;16631049;28;21381;-48
2022/12/30 13:05:32;;;;;;;3.27;1.40;;;;;13.40;98517.00;;;;16650287;28;20714;-48
2022/12/30 13:13:39;;;;;;;2.70;1.90;;;;;13.30;98494.00;;;;16642393;28;20234;-48
2022/12/30 13:21:45;;;;;;;2.43;1.27;;;;;13.30;98454.00;;;;16646070;28;20235;-48
2022/12/30 13:29:47;;;;;;;1.53;1.43;;;;;13.30;98456.00;;;;16650417;28;20236;-48
2022/12/30 13:37:57;;;;;;;1.40;1.30;;;;;13.30;98442.00;;;;16645455;28;20221;-49
2022/12/30 13:46:01;;;;;;;2.10;1.57;;;;;13.30;98438.00;;;;16644424;28;20219;-48
2022/12/30 13:54:18;;;;;;;1.50;1.40;;;;;13.40;98406.00;;;;16647173;28;20300;-48
2022/12/30 14:02:47;;;;;;;1.93;1.70;;;;;13.20;98415.00;;;;16637752;28;20305;-48
2022/12/30 14:11:06;;;;;;;1.97;1.47;;;;;13.10;98422.00;;;;16642675;28;20592;-48
2022/12/30 14:19:14;;;;;;;2.23;1.80;;;;;13.10;98411.00;;;;16646195;28;20227;-48
2022/12/30 14:27:42;;;;;;;3.50;2.40;;;;;13.10;98415.00;;;;16643764;28;20209;-48
2022/12/30 14:35:50;;;;;;;2.60;2.40;;;;;13.00;98409.00;;;;16645204;28;20233;-48
2022/12/30 14:43:57;;;;;;;7.87;4.00;;;;;13.10;98392.00;;;;16643130;28;20220;-48
2022/12/30 14:52:11;;;;;;;4.90;4.13;;;;;12.90;98379.00;;;;16646552;28;20229;-48
2022/12/30 15:00:19;;;;;;;7.53;5.23;;;;;12.90;98386.00;;;;16643192;28;20223;-49
2022/12/30 15:08:22;;;;;;;5.33;4.60;;;;;12.90;98390.00;;;;16643226;28;20210;-48
2022/12/30 15:16:26;;;;;;;3.77;3.13;;;;;12.80;98379.00;;;;16653180;28;20229;-48
2022/12/30 15:24:29;;;;;;;1.80;1.70;;;;;12.70;98379.00;;;;16657059;22;20240;-66
2022/12/30 15:32:36;;;;;;;1.53;1.43;;;;;12.70;98372.00;;;;16641852;28;20850;-67
2022/12/30 15:40:38;;;;;;;1.73;1.63;;;;;12.80;98362.00;;;;16655615;28;20221;-67
2022/12/30 15:48:43;;;;;;;2.07;1.50;;;;;12.80;98368.00;;;;16659728;28;20266;-67
2022/12/30 15:56:47;;;;;;;1.37;1.27;;;;;12.70;98366.00;;;;16658337;28;20353;-65
2022/12/30 16:04:52;;;;;;;1.90;1.40;;;;;12.70;98362.00;;;;16658365;28;20612;-67
2022/12/30 16:12:55;;;;;;;1.40;1.30;;;;;12.80;98363.00;;;;16659219;28;20236;-66
2022/12/30 16:21:01;;;;;;;1.77;1.67;;;;;12.70;98354.00;;;;16659506;28;20643;-68
2022/12/30 16:29:15;;;;;;;1.93;1.60;;;;;12.70;98344.00;;;;16657365;28;20590;-66
2022/12/30 16:37:24;;;;;;;1.70;1.60;;;;;12.80;98351.00;;;;16651632;28;20304;-67
2022/12/30 16:45:26;;;;;;;1.47;1.37;;;;;12.70;98346.00;;;;16658172;28;20277;-67
2022/12/30 16:53:31;;;;;;;2.00;1.77;;;;;12.70;98354.00;;;;16656506;28;20305;-67
2022/12/30 17:01:35;;;;;;;1.70;1.60;;;;;12.80;98350.00;;;;16638874;28;20218;-67
2022/12/30 17:17:58;;;;;;;2.33;1.90;;;;;13.00;98336.00;;;;16654300;28;20772;-67
2022/12/30 17:26:02;;;;;;;2.10;2.00;;;;;13.00;98350.00;;;;16653905;28;20465;-67
2022/12/30 17:34:05;;;;;;;1.60;1.50;;;;;13.20;98341.00;;;;16653632;28;20237;-67
2022/12/30 17:42:09;;;;;;;1.70;1.30;;;;;13.50;98344.00;;;;16655089;28;20228;-67
2022/12/30 17:50:12;;;;;;;1.90;1.10;;;;;13.70;98340.00;;;;16652690;28;20590;-67
2022/12/30 17:58:18;;;;;;;1.37;1.30;;;;;13.70;98342.00;;;;16626099;28;20230;-65
2022/12/30 18:06:21;;;;;;;1.00;1.00;;;;;13.80;98354.00;;;;16652432;28;20309;-67
2022/12/30 18:14:25;;;;;;;1.00;1.00;;;;;13.90;98357.00;;;;16652395;28;20273;-68
2022/12/30 18:22:28;;;;;;;1.20;1.13;;;;;14.00;98359.00;;;;16618573;22;20241;-80
2022/12/30 18:30:32;;;;;;;1.77;1.10;;;;;14.10;98366.00;;;;16590416;28;20254;-78
2022/12/30 18:38:34;;;;;;;1.37;1.00;;;;;14.10;98384.00;;;;16587847;28;20286;-79
2022/12/30 18:46:38;;;;;;;1.60;1.40;;;;;14.20;98399.00;;;;16596020;28;20277;-79
2022/12/30 18:54:40;;;;;;;2.50;2.30;;;;;14.00;98419.00;;;;16585851;28;20266;-79
2022/12/30 19:02:44;;;;;;;1.17;1.00;;;;;13.90;98435.00;;;;16574007;28;20770;-79
2022/12/30 19:10:47;;;;;;;1.33;1.07;;;;;13.90;98451.00;;;;16587492;28;20305;-79
2022/12/30 19:18:52;;;;;;;4.63;4.00;;;;;14.00;98453.00;;;;16601441;28;20390;-79
2022/12/30 19:26:54;;;;;;;1.10;1.00;;;;;14.10;98447.00;;;;16613167;28;20264;-79
2022/12/30 19:34:58;;;;;;;1.10;1.00;;;;;14.10;98467.00;;;;16615141;28;20227;-79
2022/12/30 19:43:01;;;;;;;1.57;1.47;;;;;14.20;98477.00;;;;16633709;28;20223;-79
2022/12/30 19:51:05;;;;;;;2.00;1.23;;;;;14.30;98483.00;;;;16643937;28;20227;-78
2022/12/30 19:59:07;;;;;;;1.27;1.10;;;;;14.30;98488.00;;;;16611092;28;20295;-79
2022/12/30 20:07:11;;;;;;;3.83;1.50;;;;;14.30;98502.00;;;;16631600;28;20220;-79
2022/12/30 20:15:14;;;;;;;1.40;1.20;;;;;14.30;98499.00;;;;16637763;28;20500;-79
2022/12/30 20:23:17;;;;;;;1.20;1.07;;;;;14.40;98506.00;;;;16633229;28;20231;-78
2022/12/30 20:31:23;;;;;;;2.03;1.27;;;;;14.30;98510.00;;;;16626364;28;20360;-79
2022/12/30 20:39:29;;;;;;;3.77;2.37;;;;;14.30;98505.00;;;;16632208;28;20212;-79
2022/12/30 20:47:31;;;;;;;1.47;1.37;;;;;14.30;98495.00;;;;16633583;28;20227;-79
2022/12/30 20:55:39;;;;;;;0.80;0.80;;;;;14.40;98508.00;;;;16600774;28;20227;-79
2022/12/30 21:03:42;;;;;;;2.80;2.60;;;;;14.40;98528.00;;;;16630505;28;20258;-79
2022/12/30 21:11:46;;;;;;;3.40;3.10;;;;;14.40;98551.00;;;;16625205;28;20321;-79
2022/12/30 21:19:49;;;;;;;1.60;1.50;;;;;14.50;98561.00;;;;16601950;28;20827;-79
2022/12/30 21:27:52;;;;;;;4.27;2.17;;;;;14.40;98575.00;;;;16610816;28;20285;-79
2022/12/30 21:35:55;;;;;;;1.37;1.27;;;;;14.60;98582.00;;;;16625384;28;20334;-79
2022/12/30 22:09:03;;;;;;;1.27;1.17;;;;;14.60;98609.00;;;;16597713;28;20593;-79
2022/12/30 22:17:06;;;;;;;1.10;1.00;;;;;14.50;98610.00;;;;16655075;28;20210;-78
2022/12/30 22:25:09;;;;;;;3.27;1.17;;;;;14.60;98626.00;;;;16587630;28;20773;-79
2022/12/30 22:33:14;;;;;;;1.57;1.47;;;;;14.80;98624.00;;;;16613740;28;20222;-78
2022/12/30 22:41:16;;;;;;;1.50;1.40;;;;;14.90;98639.00;;;;16609157;28;20218;-79
2022/12/30 22:49:20;;;;;;;0.90;0.90;;;;;15.00;98641.00;;;;16621936;28;20227;-79
2022/12/30 22:57:24;;;;;;;1.10;1.00;;;;;15.00;98605.00;;;;16680812;23;20241;-47
2022/12/30 23:05:27;;;;;;;1.30;1.20;;;;;15.00;98607.00;;;;16678772;28;20214;-46
2022/12/30 23:21:51;;;;;;;1.33;0.87;;;;;15.20;98639.00;;;;16669622;28;20225;-48
2022/12/30 23:29:53;;;;;;;2.00;1.80;;;;;15.50;98646.00;;;;16693676;28;20294;-49
2022/12/30 23:37:57;;;;;;;0.97;0.90;;;;;15.50;98650.00;;;;16681699;28;20222;-46
2022/12/30 23:45:59;;;;;;;1.10;1.10;;;;;15.60;98656.00;;;;16672837;28;20270;-49
2022/12/30 23:54:05;;;;;;;2.20;0.97;;;;;15.70;98645.00;;;;16695644;28;20230;-49
